createdAt,value
2023-04-24T00:04:31.210Z,0.60
2023-04-24T00:09:32.886Z,0.60
2023-04-24T00:14:35.944Z,0.70
2023-04-24T00:19:38.520Z,0.70
2023-04-24T00:24:40.631Z,0.50
2023-04-24T00:29:42.558Z,0.70
2023-04-24T00:34:44.461Z,0.57
2023-04-24T00:39:46.130Z,0.63
2023-04-24T00:44:48.166Z,0.50
2023-04-24T00:49:49.830Z,0.60
2023-04-24T00:54:51.464Z,0.60
2023-04-24T00:59:54.348Z,0.60
2023-04-24T01:04:56.174Z,0.70
2023-04-24T01:09:57.965Z,0.60
2023-04-24T01:15:09.495Z,0.50
2023-04-24T01:20:11.730Z,0.57
2023-04-24T01:25:13.356Z,0.40
2023-04-24T01:30:16.521Z,0.60
2023-04-24T01:35:18.233Z,0.70
2023-04-24T01:40:19.949Z,0.60
2023-04-24T01:45:21.520Z,0.77
2023-04-24T01:50:23.083Z,1.30
2023-04-24T01:55:24.718Z,0.70
2023-04-24T02:00:26.552Z,1.00
2023-04-24T02:05:29.968Z,0.80
2023-04-24T02:10:31.548Z,0.93
2023-04-24T02:15:34.078Z,0.90
2023-04-24T02:20:36.633Z,1.00
2023-04-24T02:25:38.175Z,2.50
2023-04-24T02:30:39.747Z,1.60
2023-04-24T02:35:42.053Z,1.70
2023-04-24T02:40:43.742Z,1.50
2023-04-24T02:45:46.660Z,1.60
2023-04-24T02:50:48.700Z,1.80
2023-04-24T02:55:50.578Z,1.90
2023-04-24T03:00:58.309Z,2.03
2023-04-24T03:06:00.223Z,1.93
2023-04-24T03:11:03.401Z,2.23
2023-04-24T03:16:05.926Z,1.80
2023-04-24T03:21:07.499Z,1.90
2023-04-24T03:26:09.654Z,2.07
2023-04-24T03:31:16.303Z,1.90
2023-04-24T03:36:28.802Z,2.00
2023-04-24T03:41:31.632Z,2.20
2023-04-24T03:46:42.748Z,1.93
2023-04-24T03:51:44.694Z,2.47
2023-04-24T03:56:56.564Z,3.07
2023-04-24T04:02:01.168Z,2.23
2023-04-24T04:07:03.880Z,2.00
2023-04-24T04:12:06.283Z,2.30
2023-04-24T04:17:09.153Z,2.00
2023-04-24T04:22:10.783Z,1.87
2023-04-24T04:27:22.143Z,2.37
2023-04-24T04:32:34.187Z,2.07
2023-04-24T04:37:36.338Z,2.53
2023-04-24T04:42:53.981Z,2.60
2023-04-24T04:47:56.702Z,2.40
2023-04-24T04:52:58.821Z,1.90
2023-04-24T04:58:06.954Z,2.03
2023-04-24T05:03:19.819Z,2.00
2023-04-24T05:08:27.851Z,2.20
2023-04-24T05:13:39.079Z,2.40
2023-04-24T05:18:46.095Z,2.40
2023-04-24T05:23:50.838Z,2.50
2023-04-24T05:29:03.365Z,2.50
2023-04-24T05:34:06.222Z,2.23
2023-04-24T05:39:09.106Z,2.80
2023-04-24T05:44:10.896Z,2.30
2023-04-24T05:49:12.608Z,2.00
2023-04-24T05:54:15.590Z,2.43
2023-04-24T05:59:22.434Z,1.97
2023-04-24T06:04:25.964Z,2.27
2023-04-24T06:09:36.740Z,2.27
2023-04-24T06:14:38.705Z,2.60
2023-04-24T06:19:54.035Z,2.23
2023-04-24T06:24:57.985Z,2.53
2023-04-24T06:30:00.009Z,2.27
2023-04-24T06:35:02.095Z,3.10
2023-04-24T06:40:05.157Z,2.47
2023-04-24T06:45:07.938Z,2.20
2023-04-24T06:50:09.942Z,2.40
2023-04-24T06:55:12.214Z,2.50
2023-04-24T07:00:14.593Z,2.43
2023-04-24T07:05:16.327Z,2.47
2023-04-24T07:10:18.303Z,2.00
2023-04-24T07:15:21.645Z,2.00
2023-04-24T07:20:23.285Z,2.37
2023-04-24T07:25:25.264Z,2.10
2023-04-24T07:30:27.241Z,2.53
2023-04-24T07:35:28.843Z,1.73
2023-04-24T07:40:30.606Z,1.43
2023-04-24T07:45:34.578Z,1.87
2023-04-24T07:50:37.820Z,1.33
2023-04-24T07:55:39.403Z,1.57
2023-04-24T08:00:41.039Z,1.30
2023-04-24T08:05:44.055Z,1.30
2023-04-24T08:10:45.770Z,1.13
2023-04-24T08:15:47.501Z,1.50
2023-04-24T08:20:49.279Z,1.20
2023-04-24T08:25:50.982Z,1.10
2023-04-24T08:30:55.543Z,1.23
2023-04-24T08:35:57.363Z,1.40
2023-04-24T08:41:00.727Z,1.00
2023-04-24T08:51:10.415Z,1.87
2023-04-24T08:56:12.484Z,1.17
2023-04-24T09:01:14.447Z,1.30
2023-04-24T09:06:17.594Z,1.30
2023-04-24T09:11:19.810Z,1.90
2023-04-24T09:16:21.612Z,1.50
2023-04-24T09:21:24.292Z,1.60
2023-04-24T09:26:26.181Z,2.00
2023-04-24T09:31:29.839Z,1.60
2023-04-24T09:36:38.847Z,1.77
2023-04-24T09:41:53.086Z,1.80
2023-04-24T09:46:56.575Z,1.70
2023-04-24T09:52:05.739Z,1.97
2023-04-24T09:57:10.455Z,1.80
2023-04-24T10:02:22.447Z,1.83
2023-04-24T10:07:27.048Z,2.07
2023-04-24T10:12:29.979Z,1.60
2023-04-24T10:17:42.186Z,1.90
2023-04-24T10:22:51.527Z,2.23
2023-04-24T10:27:53.768Z,2.23
2023-04-24T10:32:55.478Z,2.03
2023-04-24T10:38:13.509Z,1.77
2023-04-24T10:43:18.405Z,1.73
2023-04-24T10:48:20.330Z,2.03
2023-04-24T10:53:24.696Z,1.70
2023-04-24T10:58:41.371Z,1.90
2023-04-24T11:03:51.767Z,1.83
2023-04-24T11:09:02.854Z,3.00
2023-04-24T11:14:07.659Z,2.10
2023-04-24T11:19:17.444Z,1.57
2023-04-24T11:24:39.437Z,3.00
2023-04-24T11:29:49.596Z,2.00
2023-04-24T11:35:04.877Z,3.73
2023-04-24T11:40:08.771Z,3.43
2023-04-24T11:45:12.272Z,3.07
2023-04-24T11:50:15.272Z,2.60
2023-04-24T11:55:17.854Z,5.43
2023-04-24T12:00:25.858Z,3.30
2023-04-24T12:05:28.660Z,4.73
2023-04-24T12:10:32.054Z,3.83
2023-04-24T12:15:33.826Z,2.10
2023-04-24T12:20:36.903Z,2.30
2023-04-24T12:25:40.041Z,2.30
2023-04-24T12:30:49.499Z,5.33
2023-04-24T12:35:55.552Z,5.03
2023-04-24T12:41:16.012Z,2.77
2023-04-24T12:46:19.962Z,3.40
2023-04-24T12:51:24.318Z,2.33
2023-04-24T12:56:25.996Z,2.40
2023-04-24T13:01:27.695Z,2.73
2023-04-24T13:06:29.280Z,3.00
2023-04-24T13:11:30.909Z,3.33
2023-04-24T13:16:32.498Z,4.37
2023-04-24T13:21:34.191Z,5.60
2023-04-24T13:26:35.819Z,2.60
2023-04-24T13:31:37.433Z,3.23
2023-04-24T13:36:39.096Z,3.40
2023-04-24T13:41:40.875Z,2.43
2023-04-24T13:46:45.429Z,2.63
2023-04-24T13:51:47.515Z,2.20
2023-04-24T13:56:50.882Z,2.53
2023-04-24T14:01:52.551Z,3.67
2023-04-24T14:06:54.305Z,1.77
2023-04-24T14:11:56.044Z,2.87
2023-04-24T14:16:58.059Z,2.40
2023-04-24T14:21:59.841Z,2.87
2023-04-24T14:27:01.473Z,2.40
2023-04-24T14:32:03.048Z,2.93
2023-04-24T14:37:04.846Z,2.50
2023-04-24T14:42:06.452Z,3.07
2023-04-24T14:47:08.119Z,3.57
2023-04-24T14:52:09.682Z,3.87
2023-04-24T14:57:11.866Z,3.90
2023-04-24T15:02:16.417Z,2.20
2023-04-24T15:07:18.955Z,2.77
2023-04-24T15:12:20.743Z,2.00
2023-04-24T15:17:22.414Z,2.53
2023-04-24T15:22:24.043Z,1.80
2023-04-24T15:27:25.737Z,3.00
2023-04-24T15:32:27.398Z,2.10
2023-04-24T15:37:29.016Z,2.57
2023-04-24T15:42:30.644Z,2.50
2023-04-24T15:47:33.316Z,2.93
2023-04-24T15:52:35.358Z,1.80
2023-04-24T15:57:37.330Z,1.90
2023-04-24T16:08:24.764Z,2.97
2023-04-24T16:13:26.334Z,2.27
2023-04-24T16:18:27.969Z,4.03
2023-04-24T16:23:30.114Z,2.77
2023-04-24T16:28:32.602Z,2.10
2023-04-24T16:33:34.142Z,4.47
2023-04-24T16:38:36.121Z,2.13
2023-04-24T16:43:38.321Z,3.27
2023-04-24T16:48:39.994Z,2.20
2023-04-24T16:53:41.703Z,2.07
2023-04-24T16:58:43.576Z,2.20
2023-04-24T17:03:46.634Z,1.90
2023-04-24T17:08:48.646Z,3.33
2023-04-24T17:13:50.375Z,2.40
2023-04-24T17:18:51.987Z,2.43
2023-04-24T17:23:53.954Z,2.63
2023-04-24T17:28:55.813Z,3.60
2023-04-24T17:33:57.602Z,3.27
2023-04-24T17:38:59.180Z,2.57
2023-04-24T18:18:48.551Z,4.60
2023-04-24T18:23:50.245Z,5.43
2023-04-24T18:28:51.783Z,3.90
2023-04-24T18:33:54.309Z,3.97
2023-04-24T18:38:56.201Z,4.77
2023-04-24T18:43:59.137Z,2.60
2023-04-24T18:49:00.691Z,2.10
2023-04-24T18:54:02.382Z,2.30
2023-04-24T18:59:03.950Z,2.40
2023-04-24T19:04:05.595Z,1.97
2023-04-24T19:09:07.416Z,2.10
2023-04-24T19:14:09.096Z,1.40
2023-04-24T19:19:11.441Z,2.17
2023-04-24T19:24:13.032Z,1.70
2023-04-24T19:29:14.649Z,1.57
2023-04-24T19:34:16.380Z,2.27
2023-04-24T19:39:19.041Z,1.80
2023-04-24T19:44:20.570Z,2.47
2023-04-24T19:49:22.261Z,1.70
2023-04-24T19:54:23.823Z,2.23
2023-04-24T19:59:25.711Z,3.83
2023-04-24T20:04:27.510Z,2.03
2023-04-24T20:09:30.427Z,1.83
2023-04-24T20:14:33.372Z,1.70
2023-04-24T20:19:35.077Z,1.57
2023-04-24T20:24:37.378Z,1.53
2023-04-24T20:29:39.320Z,2.10
2023-04-24T20:34:41.249Z,2.27
2023-04-24T20:39:44.472Z,2.00
2023-04-24T20:44:46.064Z,1.97
2023-04-24T20:49:48.742Z,1.77
2023-04-24T20:54:50.493Z,2.23
2023-04-24T20:59:52.557Z,1.70
2023-04-24T21:04:54.149Z,1.53
2023-04-24T21:09:55.801Z,1.70
2023-04-24T21:14:57.333Z,1.33
2023-04-24T21:19:59.486Z,2.17
2023-04-24T21:25:01.418Z,1.80
2023-04-24T21:30:06.538Z,1.60
2023-04-24T21:35:09.607Z,1.60
2023-04-24T21:40:11.493Z,1.40
2023-04-24T21:45:13.078Z,2.20
2023-04-24T21:50:14.696Z,1.90
2023-04-24T21:55:19.300Z,1.97
2023-04-24T22:00:21.483Z,2.27
2023-04-24T22:05:23.798Z,3.37
2023-04-24T22:10:27.009Z,2.43
2023-04-24T22:15:28.634Z,2.17
2023-04-24T22:20:30.680Z,1.83
2023-04-24T22:25:32.331Z,1.80
2023-04-24T22:30:34.019Z,2.00
2023-04-24T22:35:37.451Z,2.50
2023-04-24T22:40:40.376Z,1.83
2023-04-24T22:45:41.943Z,2.00
2023-04-24T22:50:43.495Z,2.13
2023-04-24T22:55:45.313Z,1.90
2023-04-24T23:00:47.243Z,3.33
2023-04-24T23:05:49.124Z,2.57
2023-04-24T23:10:50.902Z,2.10
2023-04-24T23:15:57.661Z,2.20
2023-04-24T23:21:02.295Z,2.17
2023-04-24T23:26:04.060Z,2.07
2023-04-24T23:31:05.761Z,1.90
2023-04-24T23:36:07.862Z,2.10
2023-04-24T23:41:09.736Z,2.50
2023-04-24T23:46:11.556Z,2.83
2023-04-24T23:51:13.298Z,2.43
2023-04-24T23:56:14.955Z,2.87
